sensor_id;sensor_type;location;lat;lon;timestamp;P1;durP1;ratioP1;P2;durP2;ratioP2
13311;SDS011;34033;48.672;9.376;2022-08-19T00:00:17;11.60;;;9.67;;
13311;SDS011;34033;48.672;9.376;2022-08-19T00:02:43;11.20;;;9.90;;
13311;SDS011;34033;48.672;9.376;2022-08-19T00:05:10;12.53;;;9.77;;
13311;SDS011;34033;48.672;9.376;2022-08-19T00:07:36;11.17;;;9.97;;
13311;SDS011;34033;48.672;9.376;2022-08-19T00:10:03;12.33;;;9.97;;
13311;SDS011;34033;48.672;9.376;2022-08-19T00:12:29;11.90;;;9.97;;
13311;SDS011;34033;48.672;9.376;2022-08-19T00:14:55;11.13;;;9.57;;
13311;SDS011;34033;48.672;9.376;2022-08-19T00:17:20;11.17;;;9.77;;
13311;SDS011;34033;48.672;9.376;2022-08-19T00:19:46;11.47;;;10.27;;
13311;SDS011;34033;48.672;9.376;2022-08-19T00:22:11;11.27;;;9.57;;
13311;SDS011;34033;48.672;9.376;2022-08-19T00:24:37;13.17;;;10.03;;
13311;SDS011;34033;48.672;9.376;2022-08-19T00:27:03;13.87;;;11.17;;
13311;SDS011;34033;48.672;9.376;2022-08-19T00:29:29;11.43;;;9.93;;
13311;SDS011;34033;48.672;9.376;2022-08-19T00:31:55;12.70;;;10.43;;
13311;SDS011;34033;48.672;9.376;2022-08-19T00:34:23;12.03;;;10.30;;
13311;SDS011;34033;48.672;9.376;2022-08-19T00:36:50;11.77;;;10.40;;
13311;SDS011;34033;48.672;9.376;2022-08-19T00:39:15;12.57;;;10.50;;
13311;SDS011;34033;48.672;9.376;2022-08-19T00:41:42;10.67;;;9.17;;
13311;SDS011;34033;48.672;9.376;2022-08-19T00:44:14;12.60;;;9.47;;
13311;SDS011;34033;48.672;9.376;2022-08-19T00:46:45;10.30;;;9.30;;
13311;SDS011;34033;48.672;9.376;2022-08-19T00:51:45;11.23;;;9.83;;
13311;SDS011;34033;48.672;9.376;2022-08-19T00:54:13;12.23;;;10.17;;
13311;SDS011;34033;48.672;9.376;2022-08-19T00:56:39;10.53;;;9.37;;
13311;SDS011;34033;48.672;9.376;2022-08-19T00:59:06;13.13;;;10.17;;
13311;SDS011;34033;48.672;9.376;2022-08-19T01:01:37;12.10;;;10.43;;
13311;SDS011;34033;48.672;9.376;2022-08-19T01:04:04;13.40;;;10.27;;
13311;SDS011;34033;48.672;9.376;2022-08-19T01:06:30;13.07;;;10.53;;
13311;SDS011;34033;48.672;9.376;2022-08-19T01:08:57;14.30;;;11.53;;
13311;SDS011;34033;48.672;9.376;2022-08-19T01:11:23;12.97;;;10.93;;
13311;SDS011;34033;48.672;9.376;2022-08-19T01:13:49;12.03;;;10.73;;
13311;SDS011;34033;48.672;9.376;2022-08-19T01:16:17;13.70;;;10.87;;
13311;SDS011;34033;48.672;9.376;2022-08-19T01:18:45;11.00;;;9.87;;
13311;SDS011;34033;48.672;9.376;2022-08-19T01:21:31;13.93;;;11.13;;
13311;SDS011;34033;48.672;9.376;2022-08-19T01:24:00;12.67;;;9.83;;
13311;SDS011;34033;48.672;9.376;2022-08-19T01:26:25;12.93;;;10.50;;
13311;SDS011;34033;48.672;9.376;2022-08-19T01:28:52;13.67;;;10.10;;
13311;SDS011;34033;48.672;9.376;2022-08-19T01:31:21;12.40;;;10.30;;
13311;SDS011;34033;48.672;9.376;2022-08-19T01:33:49;11.27;;;9.60;;
13311;SDS011;34033;48.672;9.376;2022-08-19T01:38:56;13.50;;;10.53;;
13311;SDS011;34033;48.672;9.376;2022-08-19T01:41:23;12.10;;;10.00;;
13311;SDS011;34033;48.672;9.376;2022-08-19T01:43:49;12.93;;;10.23;;
13311;SDS011;34033;48.672;9.376;2022-08-19T01:46:15;12.13;;;10.07;;
13311;SDS011;34033;48.672;9.376;2022-08-19T01:48:42;12.20;;;10.03;;
13311;SDS011;34033;48.672;9.376;2022-08-19T01:51:09;12.47;;;10.17;;
13311;SDS011;34033;48.672;9.376;2022-08-19T01:53:35;11.17;;;9.80;;
13311;SDS011;34033;48.672;9.376;2022-08-19T01:56:02;14.43;;;10.03;;
13311;SDS011;34033;48.672;9.376;2022-08-19T01:58:32;11.53;;;9.43;;
13311;SDS011;34033;48.672;9.376;2022-08-19T02:01:01;13.13;;;10.10;;
13311;SDS011;34033;48.672;9.376;2022-08-19T02:03:28;15.13;;;10.90;;
13311;SDS011;34033;48.672;9.376;2022-08-19T02:05:58;13.53;;;10.30;;
13311;SDS011;34033;48.672;9.376;2022-08-19T02:08:29;12.10;;;10.27;;
13311;SDS011;34033;48.672;9.376;2022-08-19T02:10:55;12.70;;;10.10;;
13311;SDS011;34033;48.672;9.376;2022-08-19T02:13:21;12.27;;;10.20;;
13311;SDS011;34033;48.672;9.376;2022-08-19T02:15:47;17.67;;;9.93;;
13311;SDS011;34033;48.672;9.376;2022-08-19T02:18:13;11.60;;;9.93;;
13311;SDS011;34033;48.672;9.376;2022-08-19T02:20:39;12.63;;;9.67;;
13311;SDS011;34033;48.672;9.376;2022-08-19T02:23:05;12.83;;;9.10;;
13311;SDS011;34033;48.672;9.376;2022-08-19T02:25:32;11.80;;;9.50;;
13311;SDS011;34033;48.672;9.376;2022-08-19T02:27:57;13.17;;;9.73;;
13311;SDS011;34033;48.672;9.376;2022-08-19T02:30:23;11.83;;;9.73;;
13311;SDS011;34033;48.672;9.376;2022-08-19T02:32:49;10.63;;;9.23;;
13311;SDS011;34033;48.672;9.376;2022-08-19T02:35:15;11.80;;;9.53;;
13311;SDS011;34033;48.672;9.376;2022-08-19T02:37:41;10.17;;;9.03;;
13311;SDS011;34033;48.672;9.376;2022-08-19T02:40:26;13.23;;;10.17;;
13311;SDS011;34033;48.672;9.376;2022-08-19T02:42:52;10.87;;;9.00;;
13311;SDS011;34033;48.672;9.376;2022-08-19T02:45:18;12.90;;;10.37;;
13311;SDS011;34033;48.672;9.376;2022-08-19T02:47:43;13.53;;;10.90;;
13311;SDS011;34033;48.672;9.376;2022-08-19T02:50:09;12.53;;;10.07;;
13311;SDS011;34033;48.672;9.376;2022-08-19T02:52:34;12.70;;;9.47;;
13311;SDS011;34033;48.672;9.376;2022-08-19T02:55:00;10.83;;;9.17;;
13311;SDS011;34033;48.672;9.376;2022-08-19T02:57:26;10.97;;;9.20;;
13311;SDS011;34033;48.672;9.376;2022-08-19T02:59:52;10.50;;;9.03;;
13311;SDS011;34033;48.672;9.376;2022-08-19T03:02:17;12.13;;;9.70;;
13311;SDS011;34033;48.672;9.376;2022-08-19T03:04:43;12.57;;;9.80;;
13311;SDS011;34033;48.672;9.376;2022-08-19T03:07:09;13.13;;;9.60;;
13311;SDS011;34033;48.672;9.376;2022-08-19T03:09:39;10.60;;;9.10;;
13311;SDS011;34033;48.672;9.376;2022-08-19T03:12:04;12.07;;;9.40;;
13311;SDS011;34033;48.672;9.376;2022-08-19T03:14:31;11.77;;;9.27;;
13311;SDS011;34033;48.672;9.376;2022-08-19T03:16:57;11.53;;;9.23;;
13311;SDS011;34033;48.672;9.376;2022-08-19T03:19:22;10.63;;;7.73;;
13311;SDS011;34033;48.672;9.376;2022-08-19T03:21:48;11.13;;;8.50;;
13311;SDS011;34033;48.672;9.376;2022-08-19T03:24:14;10.23;;;8.57;;
13311;SDS011;34033;48.672;9.376;2022-08-19T03:26:41;10.83;;;9.10;;
13311;SDS011;34033;48.672;9.376;2022-08-19T03:29:08;13.70;;;8.10;;
13311;SDS011;34033;48.672;9.376;2022-08-19T03:31:36;9.23;;;7.90;;
13311;SDS011;34033;48.672;9.376;2022-08-19T03:34:03;13.30;;;9.73;;
13311;SDS011;34033;48.672;9.376;2022-08-19T03:36:28;10.90;;;9.20;;
13311;SDS011;34033;48.672;9.376;2022-08-19T03:38:56;10.37;;;8.80;;
13311;SDS011;34033;48.672;9.376;2022-08-19T03:41:24;10.23;;;8.83;;
13311;SDS011;34033;48.672;9.376;2022-08-19T03:43:52;13.60;;;10.40;;
13311;SDS011;34033;48.672;9.376;2022-08-19T03:46:20;11.43;;;8.53;;
13311;SDS011;34033;48.672;9.376;2022-08-19T03:48:48;12.03;;;9.63;;
13311;SDS011;34033;48.672;9.376;2022-08-19T03:51:20;11.23;;;8.73;;
13311;SDS011;34033;48.672;9.376;2022-08-19T03:53:46;17.73;;;9.87;;
13311;SDS011;34033;48.672;9.376;2022-08-19T03:56:12;11.37;;;9.10;;
13311;SDS011;34033;48.672;9.376;2022-08-19T03:58:38;11.10;;;8.50;;
13311;SDS011;34033;48.672;9.376;2022-08-19T04:01:11;12.37;;;9.20;;
13311;SDS011;34033;48.672;9.376;2022-08-19T04:03:39;11.10;;;8.47;;
13311;SDS011;34033;48.672;9.376;2022-08-19T04:08:37;12.90;;;9.90;;
13311;SDS011;34033;48.672;9.376;2022-08-19T04:11:06;11.80;;;9.87;;
13311;SDS011;34033;48.672;9.376;2022-08-19T04:13:32;12.80;;;9.37;;
13311;SDS011;34033;48.672;9.376;2022-08-19T04:15:58;16.67;;;9.20;;
13311;SDS011;34033;48.672;9.376;2022-08-19T04:18:24;13.40;;;9.70;;
13311;SDS011;34033;48.672;9.376;2022-08-19T04:20:50;14.33;;;10.07;;
13311;SDS011;34033;48.672;9.376;2022-08-19T04:23:15;16.83;;;11.40;;
13311;SDS011;34033;48.672;9.376;2022-08-19T04:25:42;16.73;;;11.60;;
13311;SDS011;34033;48.672;9.376;2022-08-19T04:28:09;18.10;;;11.77;;
13311;SDS011;34033;48.672;9.376;2022-08-19T04:30:46;18.90;;;11.93;;
13311;SDS011;34033;48.672;9.376;2022-08-19T04:33:14;13.90;;;10.13;;
13311;SDS011;34033;48.672;9.376;2022-08-19T04:35:45;15.60;;;10.53;;
13311;SDS011;34033;48.672;9.376;2022-08-19T04:38:14;16.73;;;10.47;;
13311;SDS011;34033;48.672;9.376;2022-08-19T04:40:45;19.07;;;10.70;;
13311;SDS011;34033;48.672;9.376;2022-08-19T04:43:31;11.13;;;9.53;;
13311;SDS011;34033;48.672;9.376;2022-08-19T04:45:57;13.40;;;10.10;;
13311;SDS011;34033;48.672;9.376;2022-08-19T04:48:23;13.23;;;9.63;;
13311;SDS011;34033;48.672;9.376;2022-08-19T04:50:52;20.13;;;11.50;;
13311;SDS011;34033;48.672;9.376;2022-08-19T04:53:23;21.37;;;12.70;;
13311;SDS011;34033;48.672;9.376;2022-08-19T04:55:50;20.87;;;13.40;;
13311;SDS011;34033;48.672;9.376;2022-08-19T04:58:16;17.67;;;11.70;;
13311;SDS011;34033;48.672;9.376;2022-08-19T05:00:42;25.23;;;14.43;;
13311;SDS011;34033;48.672;9.376;2022-08-19T05:03:08;24.30;;;13.50;;
13311;SDS011;34033;48.672;9.376;2022-08-19T05:05:37;17.23;;;11.47;;
13311;SDS011;34033;48.672;9.376;2022-08-19T05:08:04;17.60;;;11.83;;
13311;SDS011;34033;48.672;9.376;2022-08-19T05:10:29;12.93;;;9.67;;
13311;SDS011;34033;48.672;9.376;2022-08-19T05:12:55;12.63;;;9.60;;
13311;SDS011;34033;48.672;9.376;2022-08-19T05:15:22;16.13;;;10.10;;
13311;SDS011;34033;48.672;9.376;2022-08-19T05:17:47;12.27;;;9.60;;
13311;SDS011;34033;48.672;9.376;2022-08-19T05:20:33;15.03;;;10.00;;
13311;SDS011;34033;48.672;9.376;2022-08-19T05:23:17;13.40;;;9.57;;
13311;SDS011;34033;48.672;9.376;2022-08-19T05:25:42;12.67;;;10.07;;
13311;SDS011;34033;48.672;9.376;2022-08-19T05:28:08;12.70;;;10.00;;
13311;SDS011;34033;48.672;9.376;2022-08-19T05:30:33;14.60;;;9.90;;
13311;SDS011;34033;48.672;9.376;2022-08-19T05:32:59;13.00;;;10.50;;
13311;SDS011;34033;48.672;9.376;2022-08-19T05:35:25;14.50;;;10.33;;
13311;SDS011;34033;48.672;9.376;2022-08-19T05:37:50;14.00;;;9.93;;
13311;SDS011;34033;48.672;9.376;2022-08-19T05:40:15;14.00;;;9.90;;
13311;SDS011;34033;48.672;9.376;2022-08-19T05:42:41;14.87;;;10.27;;
13311;SDS011;34033;48.672;9.376;2022-08-19T05:45:07;14.37;;;9.83;;
13311;SDS011;34033;48.672;9.376;2022-08-19T05:47:33;13.77;;;10.67;;
13311;SDS011;34033;48.672;9.376;2022-08-19T05:49:58;17.97;;;9.80;;
13311;SDS011;34033;48.672;9.376;2022-08-19T05:52:24;13.47;;;10.67;;
13311;SDS011;34033;48.672;9.376;2022-08-19T05:54:49;14.23;;;10.43;;
13311;SDS011;34033;48.672;9.376;2022-08-19T05:57:16;18.37;;;10.57;;
13311;SDS011;34033;48.672;9.376;2022-08-19T05:59:42;15.53;;;10.87;;
13311;SDS011;34033;48.672;9.376;2022-08-19T06:02:08;16.90;;;10.67;;
13311;SDS011;34033;48.672;9.376;2022-08-19T06:04:34;13.13;;;10.60;;
13311;SDS011;34033;48.672;9.376;2022-08-19T06:06:59;15.80;;;10.47;;
13311;SDS011;34033;48.672;9.376;2022-08-19T06:09:26;10.73;;;8.20;;
13311;SDS011;34033;48.672;9.376;2022-08-19T06:11:53;14.23;;;10.37;;
13311;SDS011;34033;48.672;9.376;2022-08-19T06:14:24;17.97;;;10.70;;
13311;SDS011;34033;48.672;9.376;2022-08-19T06:16:51;12.60;;;10.23;;
13311;SDS011;34033;48.672;9.376;2022-08-19T06:19:20;15.77;;;10.83;;
13311;SDS011;34033;48.672;9.376;2022-08-19T06:21:49;15.17;;;10.30;;
13311;SDS011;34033;48.672;9.376;2022-08-19T06:24:17;14.43;;;10.90;;
13311;SDS011;34033;48.672;9.376;2022-08-19T06:26:47;13.37;;;10.30;;
13311;SDS011;34033;48.672;9.376;2022-08-19T06:29:14;16.90;;;11.40;;
13311;SDS011;34033;48.672;9.376;2022-08-19T06:31:44;14.20;;;10.53;;
13311;SDS011;34033;48.672;9.376;2022-08-19T06:34:14;18.17;;;11.60;;
13311;SDS011;34033;48.672;9.376;2022-08-19T06:36:42;15.03;;;10.93;;
13311;SDS011;34033;48.672;9.376;2022-08-19T06:39:10;15.77;;;11.53;;
13311;SDS011;34033;48.672;9.376;2022-08-19T06:41:39;16.07;;;11.57;;
13311;SDS011;34033;48.672;9.376;2022-08-19T06:44:06;17.10;;;12.23;;
13311;SDS011;34033;48.672;9.376;2022-08-19T06:46:32;16.13;;;11.37;;
13311;SDS011;34033;48.672;9.376;2022-08-19T06:48:57;12.57;;;10.20;;
13311;SDS011;34033;48.672;9.376;2022-08-19T06:51:23;16.00;;;11.53;;
13311;SDS011;34033;48.672;9.376;2022-08-19T06:53:51;13.57;;;10.27;;
13311;SDS011;34033;48.672;9.376;2022-08-19T06:56:19;14.90;;;11.70;;
13311;SDS011;34033;48.672;9.376;2022-08-19T06:58:47;18.10;;;11.27;;
13311;SDS011;34033;48.672;9.376;2022-08-19T07:01:18;15.10;;;12.10;;
13311;SDS011;34033;48.672;9.376;2022-08-19T07:03:44;13.67;;;10.90;;
13311;SDS011;34033;48.672;9.376;2022-08-19T07:06:12;17.27;;;11.90;;
13311;SDS011;34033;48.672;9.376;2022-08-19T07:08:40;15.50;;;11.83;;
13311;SDS011;34033;48.672;9.376;2022-08-19T07:11:08;13.50;;;11.10;;
13311;SDS011;34033;48.672;9.376;2022-08-19T07:13:35;15.63;;;11.60;;
13311;SDS011;34033;48.672;9.376;2022-08-19T07:16:08;16.03;;;12.17;;
13311;SDS011;34033;48.672;9.376;2022-08-19T07:18:37;15.37;;;12.17;;
13311;SDS011;34033;48.672;9.376;2022-08-19T07:21:06;12.10;;;10.20;;
13311;SDS011;34033;48.672;9.376;2022-08-19T07:23:37;14.90;;;11.53;;
13311;SDS011;34033;48.672;9.376;2022-08-19T07:28:32;14.73;;;12.00;;
13311;SDS011;34033;48.672;9.376;2022-08-19T07:30:58;17.13;;;12.57;;
13311;SDS011;34033;48.672;9.376;2022-08-19T07:33:23;17.13;;;12.30;;
13311;SDS011;34033;48.672;9.376;2022-08-19T07:35:49;15.90;;;12.33;;
13311;SDS011;34033;48.672;9.376;2022-08-19T07:38:15;14.60;;;10.93;;
13311;SDS011;34033;48.672;9.376;2022-08-19T07:40:41;15.07;;;11.73;;
13311;SDS011;34033;48.672;9.376;2022-08-19T07:43:08;16.13;;;12.13;;
13311;SDS011;34033;48.672;9.376;2022-08-19T07:45:34;17.17;;;11.93;;
13311;SDS011;34033;48.672;9.376;2022-08-19T07:47:59;15.93;;;12.73;;
13311;SDS011;34033;48.672;9.376;2022-08-19T07:50:26;16.53;;;11.77;;
13311;SDS011;34033;48.672;9.376;2022-08-19T07:52:51;15.77;;;12.07;;
13311;SDS011;34033;48.672;9.376;2022-08-19T07:55:18;15.50;;;12.20;;
13311;SDS011;34033;48.672;9.376;2022-08-19T07:57:46;16.73;;;12.07;;
13311;SDS011;34033;48.672;9.376;2022-08-19T08:00:11;14.43;;;10.97;;
13311;SDS011;34033;48.672;9.376;2022-08-19T08:02:37;15.87;;;12.27;;
13311;SDS011;34033;48.672;9.376;2022-08-19T08:05:04;13.13;;;10.17;;
13311;SDS011;34033;48.672;9.376;2022-08-19T08:07:48;14.13;;;11.30;;
13311;SDS011;34033;48.672;9.376;2022-08-19T08:10:32;14.17;;;10.73;;
13311;SDS011;34033;48.672;9.376;2022-08-19T08:12:57;14.50;;;11.53;;
13311;SDS011;34033;48.672;9.376;2022-08-19T08:15:22;15.83;;;10.73;;
13311;SDS011;34033;48.672;9.376;2022-08-19T08:17:48;15.73;;;11.57;;
13311;SDS011;34033;48.672;9.376;2022-08-19T08:20:14;13.47;;;11.00;;
13311;SDS011;34033;48.672;9.376;2022-08-19T08:22:44;13.70;;;11.33;;
13311;SDS011;34033;48.672;9.376;2022-08-19T08:25:28;16.40;;;11.50;;
13311;SDS011;34033;48.672;9.376;2022-08-19T08:27:56;15.20;;;10.43;;
13311;SDS011;34033;48.672;9.376;2022-08-19T08:30:25;13.97;;;11.13;;
13311;SDS011;34033;48.672;9.376;2022-08-19T08:32:52;15.57;;;11.70;;
13311;SDS011;34033;48.672;9.376;2022-08-19T08:35:19;14.23;;;11.20;;
13311;SDS011;34033;48.672;9.376;2022-08-19T08:37:47;13.10;;;10.30;;
13311;SDS011;34033;48.672;9.376;2022-08-19T08:40:22;13.83;;;10.53;;
13311;SDS011;34033;48.672;9.376;2022-08-19T08:51:25;15.57;;;11.43;;
13311;SDS011;34033;48.672;9.376;2022-08-19T08:53:54;13.23;;;11.17;;
13311;SDS011;34033;48.672;9.376;2022-08-19T08:56:20;14.93;;;10.03;;
13311;SDS011;34033;48.672;9.376;2022-08-19T09:01:28;21.03;;;11.13;;
13311;SDS011;34033;48.672;9.376;2022-08-19T09:03:54;14.60;;;11.27;;
13311;SDS011;34033;48.672;9.376;2022-08-19T09:17:13;14.77;;;10.77;;
13311;SDS011;34033;48.672;9.376;2022-08-19T09:22:19;17.13;;;11.07;;
13311;SDS011;34033;48.672;9.376;2022-08-19T09:24:50;11.93;;;9.53;;
13311;SDS011;34033;48.672;9.376;2022-08-19T09:27:20;13.20;;;10.83;;
13311;SDS011;34033;48.672;9.376;2022-08-19T09:29:48;14.73;;;10.93;;
13311;SDS011;34033;48.672;9.376;2022-08-19T09:32:14;13.50;;;10.57;;
13311;SDS011;34033;48.672;9.376;2022-08-19T09:34:40;14.40;;;10.70;;
13311;SDS011;34033;48.672;9.376;2022-08-19T09:37:06;13.43;;;11.00;;
13311;SDS011;34033;48.672;9.376;2022-08-19T09:39:33;16.07;;;10.63;;
13311;SDS011;34033;48.672;9.376;2022-08-19T09:41:58;12.67;;;10.73;;
13311;SDS011;34033;48.672;9.376;2022-08-19T09:44:23;12.50;;;10.37;;
13311;SDS011;34033;48.672;9.376;2022-08-19T09:46:49;15.67;;;11.77;;
13311;SDS011;34033;48.672;9.376;2022-08-19T09:49:16;15.10;;;11.97;;
13311;SDS011;34033;48.672;9.376;2022-08-19T09:51:43;12.97;;;11.27;;
13311;SDS011;34033;48.672;9.376;2022-08-19T09:54:08;14.53;;;11.87;;
13311;SDS011;34033;48.672;9.376;2022-08-19T09:56:34;13.87;;;11.27;;
13311;SDS011;34033;48.672;9.376;2022-08-19T09:59:00;14.67;;;10.53;;
13311;SDS011;34033;48.672;9.376;2022-08-19T10:01:27;12.10;;;9.73;;
13311;SDS011;34033;48.672;9.376;2022-08-19T10:03:55;13.43;;;10.43;;
13311;SDS011;34033;48.672;9.376;2022-08-19T10:06:22;13.13;;;10.83;;
13311;SDS011;34033;48.672;9.376;2022-08-19T10:08:49;15.50;;;10.33;;
13311;SDS011;34033;48.672;9.376;2022-08-19T10:11:16;14.37;;;10.37;;
13311;SDS011;34033;48.672;9.376;2022-08-19T10:13:42;14.40;;;11.10;;
13311;SDS011;34033;48.672;9.376;2022-08-19T10:16:10;13.30;;;10.87;;
13311;SDS011;34033;48.672;9.376;2022-08-19T10:18:38;15.03;;;10.80;;
13311;SDS011;34033;48.672;9.376;2022-08-19T10:21:11;12.97;;;10.50;;
13311;SDS011;34033;48.672;9.376;2022-08-19T10:23:41;13.63;;;10.57;;
13311;SDS011;34033;48.672;9.376;2022-08-19T10:26:10;14.97;;;10.73;;
13311;SDS011;34033;48.672;9.376;2022-08-19T10:28:36;13.27;;;10.37;;
13311;SDS011;34033;48.672;9.376;2022-08-19T10:31:21;13.33;;;10.70;;
13311;SDS011;34033;48.672;9.376;2022-08-19T10:33:51;14.17;;;10.80;;
13311;SDS011;34033;48.672;9.376;2022-08-19T10:36:22;15.67;;;11.27;;
13311;SDS011;34033;48.672;9.376;2022-08-19T10:38:51;13.37;;;11.47;;
13311;SDS011;34033;48.672;9.376;2022-08-19T10:41:19;14.43;;;11.10;;
13311;SDS011;34033;48.672;9.376;2022-08-19T10:43:56;13.60;;;10.87;;
13311;SDS011;34033;48.672;9.376;2022-08-19T10:46:24;13.93;;;11.53;;
13311;SDS011;34033;48.672;9.376;2022-08-19T10:48:51;18.43;;;13.17;;
13311;SDS011;34033;48.672;9.376;2022-08-19T10:51:18;28.20;;;16.60;;
13311;SDS011;34033;48.672;9.376;2022-08-19T10:54:03;31.20;;;16.20;;
13311;SDS011;34033;48.672;9.376;2022-08-19T10:56:29;24.97;;;17.73;;
13311;SDS011;34033;48.672;9.376;2022-08-19T10:59:13;16.57;;;13.17;;
13311;SDS011;34033;48.672;9.376;2022-08-19T11:01:40;18.17;;;13.30;;
13311;SDS011;34033;48.672;9.376;2022-08-19T11:04:07;17.07;;;13.33;;
13311;SDS011;34033;48.672;9.376;2022-08-19T11:06:35;19.00;;;13.37;;
13311;SDS011;34033;48.672;9.376;2022-08-19T11:09:03;18.53;;;12.87;;
13311;SDS011;34033;48.672;9.376;2022-08-19T11:11:30;44.07;;;29.37;;
13311;SDS011;34033;48.672;9.376;2022-08-19T11:13:56;84.33;;;47.23;;
13311;SDS011;34033;48.672;9.376;2022-08-19T11:16:23;32.73;;;22.17;;
13311;SDS011;34033;48.672;9.376;2022-08-19T11:18:52;23.80;;;15.17;;
13311;SDS011;34033;48.672;9.376;2022-08-19T11:23:54;18.00;;;12.43;;
13311;SDS011;34033;48.672;9.376;2022-08-19T11:26:21;15.57;;;11.93;;
13311;SDS011;34033;48.672;9.376;2022-08-19T11:28:47;16.13;;;12.00;;
13311;SDS011;34033;48.672;9.376;2022-08-19T11:31:14;18.13;;;13.43;;
13311;SDS011;34033;48.672;9.376;2022-08-19T11:33:41;20.73;;;13.30;;
13311;SDS011;34033;48.672;9.376;2022-08-19T11:36:07;16.60;;;12.23;;
13311;SDS011;34033;48.672;9.376;2022-08-19T11:38:33;17.10;;;12.17;;
13311;SDS011;34033;48.672;9.376;2022-08-19T11:41:01;17.00;;;12.70;;
13311;SDS011;34033;48.672;9.376;2022-08-19T11:43:28;15.70;;;12.03;;
13311;SDS011;34033;48.672;9.376;2022-08-19T11:45:54;20.00;;;13.57;;
13311;SDS011;34033;48.672;9.376;2022-08-19T11:48:20;17.43;;;12.63;;
13311;SDS011;34033;48.672;9.376;2022-08-19T11:50:48;16.93;;;12.20;;
13311;SDS011;34033;48.672;9.376;2022-08-19T11:53:15;17.33;;;11.30;;
13311;SDS011;34033;48.672;9.376;2022-08-19T11:55:41;16.77;;;11.27;;
13311;SDS011;34033;48.672;9.376;2022-08-19T11:58:07;14.23;;;11.33;;
13311;SDS011;34033;48.672;9.376;2022-08-19T12:00:34;17.17;;;12.20;;
13311;SDS011;34033;48.672;9.376;2022-08-19T12:03:01;15.10;;;11.83;;
13311;SDS011;34033;48.672;9.376;2022-08-19T12:05:27;16.60;;;11.67;;
13311;SDS011;34033;48.672;9.376;2022-08-19T12:07:52;13.67;;;10.80;;
13311;SDS011;34033;48.672;9.376;2022-08-19T12:10:19;17.43;;;11.83;;
13311;SDS011;34033;48.672;9.376;2022-08-19T12:12:45;17.17;;;11.60;;
13311;SDS011;34033;48.672;9.376;2022-08-19T12:15:11;14.50;;;10.93;;
13311;SDS011;34033;48.672;9.376;2022-08-19T12:17:39;15.13;;;11.27;;
13311;SDS011;34033;48.672;9.376;2022-08-19T12:20:05;20.70;;;11.43;;
13311;SDS011;34033;48.672;9.376;2022-08-19T12:22:31;15.27;;;11.17;;
13311;SDS011;34033;48.672;9.376;2022-08-19T12:24:57;14.80;;;11.07;;
13311;SDS011;34033;48.672;9.376;2022-08-19T12:27:23;18.60;;;11.57;;
13311;SDS011;34033;48.672;9.376;2022-08-19T12:29:48;15.43;;;11.20;;
13311;SDS011;34033;48.672;9.376;2022-08-19T12:32:14;15.27;;;10.90;;
13311;SDS011;34033;48.672;9.376;2022-08-19T12:34:40;16.37;;;12.17;;
13311;SDS011;34033;48.672;9.376;2022-08-19T12:37:06;13.37;;;10.60;;
13311;SDS011;34033;48.672;9.376;2022-08-19T12:39:35;14.97;;;11.53;;
13311;SDS011;34033;48.672;9.376;2022-08-19T12:42:03;14.30;;;10.47;;
13311;SDS011;34033;48.672;9.376;2022-08-19T12:44:28;15.00;;;11.10;;
13311;SDS011;34033;48.672;9.376;2022-08-19T12:46:55;14.27;;;11.13;;
13311;SDS011;34033;48.672;9.376;2022-08-19T12:49:21;11.67;;;9.60;;
13311;SDS011;34033;48.672;9.376;2022-08-19T12:51:47;14.30;;;9.70;;
13311;SDS011;34033;48.672;9.376;2022-08-19T12:54:12;12.40;;;10.33;;
13311;SDS011;34033;48.672;9.376;2022-08-19T12:56:37;16.40;;;11.03;;
13311;SDS011;34033;48.672;9.376;2022-08-19T12:59:03;13.27;;;10.80;;
13311;SDS011;34033;48.672;9.376;2022-08-19T13:01:30;11.53;;;9.60;;
13311;SDS011;34033;48.672;9.376;2022-08-19T13:03:57;14.43;;;11.03;;
13311;SDS011;34033;48.672;9.376;2022-08-19T13:06:23;13.83;;;10.50;;
13311;SDS011;34033;48.672;9.376;2022-08-19T13:08:48;14.87;;;10.90;;
13311;SDS011;34033;48.672;9.376;2022-08-19T13:11:15;12.60;;;10.50;;
13311;SDS011;34033;48.672;9.376;2022-08-19T13:13:44;13.67;;;10.50;;
13311;SDS011;34033;48.672;9.376;2022-08-19T13:16:11;12.47;;;10.03;;
13311;SDS011;34033;48.672;9.376;2022-08-19T13:18:37;11.73;;;10.50;;
13311;SDS011;34033;48.672;9.376;2022-08-19T13:21:04;14.00;;;10.87;;
13311;SDS011;34033;48.672;9.376;2022-08-19T13:23:31;14.80;;;10.07;;
13311;SDS011;34033;48.672;9.376;2022-08-19T13:25:58;18.80;;;10.70;;
13311;SDS011;34033;48.672;9.376;2022-08-19T13:28:25;20.83;;;10.90;;
13311;SDS011;34033;48.672;9.376;2022-08-19T13:30:51;13.07;;;9.83;;
13311;SDS011;34033;48.672;9.376;2022-08-19T13:33:35;12.23;;;10.07;;
13311;SDS011;34033;48.672;9.376;2022-08-19T13:36:00;14.03;;;10.63;;
13311;SDS011;34033;48.672;9.376;2022-08-19T13:38:26;11.07;;;9.33;;
13311;SDS011;34033;48.672;9.376;2022-08-19T13:40:52;11.67;;;10.03;;
13311;SDS011;34033;48.672;9.376;2022-08-19T13:43:19;12.13;;;9.93;;
13311;SDS011;34033;48.672;9.376;2022-08-19T13:45:47;12.47;;;10.13;;
13311;SDS011;34033;48.672;9.376;2022-08-19T13:48:13;11.87;;;10.27;;
13311;SDS011;34033;48.672;9.376;2022-08-19T13:50:43;13.23;;;10.33;;
13311;SDS011;34033;48.672;9.376;2022-08-19T13:53:11;13.13;;;10.23;;
13311;SDS011;34033;48.672;9.376;2022-08-19T13:55:37;13.37;;;10.37;;
13311;SDS011;34033;48.672;9.376;2022-08-19T13:58:03;12.50;;;9.50;;
13311;SDS011;34033;48.672;9.376;2022-08-19T14:00:31;11.40;;;9.63;;
13311;SDS011;34033;48.672;9.376;2022-08-19T14:02:58;11.20;;;9.60;;
13311;SDS011;34033;48.672;9.376;2022-08-19T14:05:25;13.40;;;9.47;;
13311;SDS011;34033;48.672;9.376;2022-08-19T14:07:51;13.50;;;10.23;;
13311;SDS011;34033;48.672;9.376;2022-08-19T14:10:17;11.80;;;9.70;;
13311;SDS011;34033;48.672;9.376;2022-08-19T14:12:44;12.90;;;10.13;;
13311;SDS011;34033;48.672;9.376;2022-08-19T14:15:10;10.27;;;9.00;;
13311;SDS011;34033;48.672;9.376;2022-08-19T14:17:37;13.23;;;10.00;;
13311;SDS011;34033;48.672;9.376;2022-08-19T14:20:04;12.63;;;9.80;;
13311;SDS011;34033;48.672;9.376;2022-08-19T14:22:38;14.40;;;9.80;;
13311;SDS011;34033;48.672;9.376;2022-08-19T14:25:05;13.03;;;9.33;;
13311;SDS011;34033;48.672;9.376;2022-08-19T14:27:38;14.30;;;10.13;;
13311;SDS011;34033;48.672;9.376;2022-08-19T14:30:06;11.50;;;9.20;;
13311;SDS011;34033;48.672;9.376;2022-08-19T14:32:33;12.13;;;10.17;;
13311;SDS011;34033;48.672;9.376;2022-08-19T14:34:59;15.80;;;9.90;;
13311;SDS011;34033;48.672;9.376;2022-08-19T14:37:26;15.13;;;10.77;;
13311;SDS011;34033;48.672;9.376;2022-08-19T14:39:51;15.13;;;10.63;;
13311;SDS011;34033;48.672;9.376;2022-08-19T14:42:16;14.60;;;11.10;;
13311;SDS011;34033;48.672;9.376;2022-08-19T14:44:42;11.03;;;9.27;;
13311;SDS011;34033;48.672;9.376;2022-08-19T14:47:08;12.97;;;10.03;;
13311;SDS011;34033;48.672;9.376;2022-08-19T14:49:34;13.97;;;10.43;;
13311;SDS011;34033;48.672;9.376;2022-08-19T14:51:59;11.93;;;10.10;;
13311;SDS011;34033;48.672;9.376;2022-08-19T14:54:25;15.73;;;10.23;;
13311;SDS011;34033;48.672;9.376;2022-08-19T14:56:50;14.00;;;8.87;;
13311;SDS011;34033;48.672;9.376;2022-08-19T14:59:16;13.17;;;9.90;;
13311;SDS011;34033;48.672;9.376;2022-08-19T15:01:41;11.53;;;9.80;;
13311;SDS011;34033;48.672;9.376;2022-08-19T15:04:07;10.70;;;9.60;;